Time;durP1;ratioP1;P1;durP2;ratioP2;P2;SDS_P1;SDS_P2;PMS_P1;PMS_P2;Temp;Humidity;BMP_temperature;BMP_pressure;BME280_temperature;BME280_humidity;BME280_pressure;Samples;Min_cycle;Max_cycle;Signal;HPM_P1;HPM_P2
2021/01/05 00:00:24;;;;;;;11.88;5.95;;;2.50;99.90;;;;;;4901335;28;20112;-81
2021/01/05 00:02:47;;;;;;;19.25;7.32;;;2.50;99.90;;;;;;4898530;28;20089;-85
2021/01/05 00:05:21;;;;;;;16.05;6.55;;;2.50;99.90;;;;;;4892514;28;20534;-81
2021/01/05 00:07:58;;;;;;;17.40;6.15;;;2.50;99.90;;;;;;4889329;28;20092;-81
2021/01/05 00:10:23;;;;;;;12.80;6.28;;;2.50;99.90;;;;;;4884328;28;20126;-82
2021/01/05 00:12:46;;;;;;;17.10;6.10;;;2.50;99.90;;;;;;4878644;28;20138;-80
2021/01/05 00:15:12;;;;;;;17.52;6.78;;;2.50;99.90;;;;;;4889245;28;20099;-82
2021/01/05 00:17:42;;;;;;;18.67;6.45;;;2.50;99.90;;;;;;4881501;28;20106;-81
2021/01/05 00:20:10;;;;;;;14.82;6.32;;;2.50;99.90;;;;;;4887282;28;20175;-81
2021/01/05 00:22:34;;;;;;;15.85;6.13;;;2.50;99.90;;;;;;4890576;28;20090;-82
2021/01/05 00:24:59;;;;;;;16.13;6.38;;;2.50;99.90;;;;;;4883349;28;20146;-82
2021/01/05 00:27:22;;;;;;;17.70;6.07;;;;;;;;;;4894519;28;20526;-83
2021/01/05 00:29:47;;;;;;;14.18;5.88;;;2.50;99.90;;;;;;4886890;28;20419;-82
2021/01/05 00:32:15;;;;;;;19.80;6.68;;;2.50;99.90;;;;;;4891561;28;20079;-82
2021/01/05 00:34:39;;;;;;;14.10;6.13;;;;;;;;;;4879998;28;20174;-81
2021/01/05 00:37:03;;;;;;;10.82;5.47;;;2.40;99.90;;;;;;4889428;28;20087;-83
2021/01/05 00:39:27;;;;;;;13.80;5.18;;;2.50;99.90;;;;;;4888646;28;20133;-82
2021/01/05 00:41:50;;;;;;;14.63;6.30;;;2.50;99.90;;;;;;4891316;28;20469;-83
2021/01/05 00:44:16;;;;;;;12.38;5.43;;;2.60;99.90;;;;;;4898292;28;22822;-81
2021/01/05 00:46:46;;;;;;;14.65;5.20;;;2.50;99.90;;;;;;4903591;28;20174;-81
2021/01/05 00:49:09;;;;;;;11.38;5.05;;;2.60;99.90;;;;;;4887564;28;20099;-81
2021/01/05 00:51:35;;;;;;;14.68;6.32;;;2.60;99.90;;;;;;4883728;28;20087;-81
2021/01/05 00:54:00;;;;;;;17.30;5.35;;;2.60;99.90;;;;;;4893034;28;20149;-82
2021/01/05 00:56:23;;;;;;;12.48;5.53;;;2.60;99.90;;;;;;4894887;28;20487;-82
2021/01/05 00:58:47;;;;;;;10.50;4.93;;;2.60;99.90;;;;;;4875541;28;20434;-81
2021/01/05 01:01:10;;;;;;;12.77;5.50;;;2.70;99.90;;;;;;4886989;28;20174;-82
2021/01/05 01:03:33;;;;;;;13.73;5.47;;;2.60;99.90;;;;;;4895370;28;20132;-82
2021/01/05 01:05:56;;;;;;;14.65;6.20;;;2.70;99.90;;;;;;4885669;28;20149;-82
2021/01/05 01:08:28;;;;;;;14.98;5.78;;;2.60;99.90;;;;;;4893334;28;20092;-81
2021/01/05 01:10:53;;;;;;;14.00;6.30;;;2.60;99.90;;;;;;4888082;28;20118;-81
2021/01/05 01:13:16;;;;;;;11.15;5.03;;;2.60;99.90;;;;;;4890214;28;20087;-81
2021/01/05 01:15:41;;;;;;;12.00;4.93;;;2.60;99.90;;;;;;4881856;28;20442;-81
2021/01/05 01:18:11;;;;;;;13.25;5.15;;;2.60;99.90;;;;;;4895756;28;20530;-82
2021/01/05 01:20:42;;;;;;;14.57;5.10;;;2.70;99.90;;;;;;4861334;28;20523;-81
2021/01/05 01:23:06;;;;;;;9.40;4.57;;;2.60;99.90;;;;;;4890396;28;20145;-81
2021/01/05 01:25:31;;;;;;;14.02;4.78;;;2.70;99.90;;;;;;4888571;28;20157;-82
2021/01/05 01:27:58;;;;;;;9.07;4.13;;;2.70;99.90;;;;;;4888196;28;20094;-81
2021/01/05 01:30:23;;;;;;;14.63;4.85;;;2.70;99.90;;;;;;4886254;28;20109;-81
2021/01/05 01:32:46;;;;;;;13.30;4.97;;;2.70;99.90;;;;;;4906273;28;20529;-81
2021/01/05 01:35:13;;;;;;;12.20;4.90;;;2.70;99.90;;;;;;4894726;28;20138;-82
2021/01/05 01:37:38;;;;;;;11.57;4.18;;;2.70;99.90;;;;;;4897292;28;20549;-81
2021/01/05 01:40:15;;;;;;;14.23;5.32;;;2.70;99.90;;;;;;4899256;28;20098;-82
2021/01/05 01:42:41;;;;;;;12.48;4.90;;;;;;;;;;4877110;28;20449;-80
2021/01/05 01:45:04;;;;;;;;;;;2.70;99.90;;;;;;4874319;28;20111;-83
2021/01/05 01:47:32;;;;;;;14.27;5.32;;;2.70;99.90;;;;;;4871072;28;20054;-81
2021/01/05 01:49:58;;;;;;;13.40;5.40;;;2.70;99.90;;;;;;4873969;28;20096;-79
2021/01/05 01:52:42;;;;;;;11.73;4.97;;;2.70;99.90;;;;;;4879022;28;20132;-80
2021/01/05 01:55:29;;;;;;;13.15;4.72;;;2.70;99.90;;;;;;4891613;28;20104;-81
2021/01/05 01:58:15;;;;;;;12.15;4.57;;;2.80;99.90;;;;;;4893943;28;20204;-81
2021/01/05 02:00:57;;;;;;;10.45;4.72;;;2.80;99.90;;;;;;4888035;28;20076;-82
2021/01/05 02:03:56;;;;;;;10.30;4.15;;;2.80;99.90;;;;;;4885890;28;20122;-81
2021/01/05 02:06:31;;;;;;;15.00;4.75;;;2.80;99.90;;;;;;4889154;28;20171;-81
2021/01/05 02:09:11;;;;;;;16.58;4.53;;;2.80;99.90;;;;;;4884590;28;20177;-83
2021/01/05 02:11:52;;;;;;;10.63;4.63;;;2.80;99.90;;;;;;4881588;28;20163;-81
2021/01/05 02:14:36;;;;;;;11.48;4.00;;;2.80;99.90;;;;;;4888218;28;20172;-81
2021/01/05 02:17:34;;;;;;;12.55;5.10;;;2.80;99.90;;;;;;4889634;28;20577;-83
2021/01/05 02:20:02;;;;;;;10.00;4.93;;;2.80;99.90;;;;;;4882693;28;20527;-82
2021/01/05 02:22:37;;;;;;;13.00;4.93;;;2.80;99.90;;;;;;4880352;28;20083;-81
2021/01/05 02:25:12;;;;;;;12.45;4.70;;;2.80;99.90;;;;;;4891689;28;20117;-82
2021/01/05 02:27:49;;;;;;;13.43;4.88;;;2.80;99.90;;;;;;4887034;28;20106;-82
2021/01/05 02:30:19;;;;;;;8.68;4.35;;;2.80;99.90;;;;;;4875496;28;20543;-82
2021/01/05 02:32:52;;;;;;;12.95;4.43;;;2.80;99.90;;;;;;4884960;28;20083;-81
2021/01/05 02:35:47;;;;;;;17.15;5.32;;;2.80;99.90;;;;;;4885753;28;20542;-81
2021/01/05 02:38:40;;;;;;;13.30;4.38;;;2.90;99.90;;;;;;4880817;28;20090;-81
2021/01/05 02:41:31;;;;;;;8.98;4.68;;;2.90;99.90;;;;;;4883450;28;20126;-81
2021/01/05 02:44:26;;;;;;;10.23;4.30;;;2.90;99.90;;;;;;4894136;28;20467;-82
2021/01/05 02:46:56;;;;;;;10.90;4.70;;;3.00;99.90;;;;;;4886283;28;20115;-81
2021/01/05 02:49:30;;;;;;;10.43;4.10;;;3.00;99.90;;;;;;4872586;28;20683;-81
2021/01/05 02:52:29;;;;;;;11.35;4.25;;;3.00;99.90;;;;;;4887143;28;20087;-80
2021/01/05 02:55:28;;;;;;;10.35;4.47;;;3.00;99.90;;;;;;4886600;28;20083;-81
2021/01/05 02:58:09;;;;;;;10.15;4.57;;;3.00;99.90;;;;;;4868386;28;20087;-81
2021/01/05 03:01:16;;;;;;;10.82;4.85;;;3.00;99.90;;;;;;4888717;28;20106;-81
2021/01/05 03:03:41;;;;;;;;;;;3.00;99.90;;;;;;4847910;28;20091;-81
2021/01/05 03:06:23;;;;;;;8.80;3.42;;;3.00;99.90;;;;;;4894179;28;19971;-81
2021/01/05 03:09:00;;;;;;;11.52;4.63;;;3.10;99.90;;;;;;4880605;28;20085;-82
2021/01/05 03:11:34;;;;;;;7.78;4.65;;;3.10;99.90;;;;;;4894935;28;20477;-82
2021/01/05 03:14:08;;;;;;;12.82;4.90;;;3.10;99.90;;;;;;4895689;28;20090;-82
2021/01/05 03:16:37;;;;;;;8.52;4.20;;;3.10;99.90;;;;;;4901175;28;20563;-82
2021/01/05 03:19:09;;;;;;;9.52;3.78;;;3.20;99.90;;;;;;4893950;28;20096;-82
2021/01/05 03:21:36;;;;;;;11.45;3.38;;;3.20;99.90;;;;;;4885154;28;20588;-80
2021/01/05 03:24:01;;;;;;;6.95;3.75;;;3.20;99.90;;;;;;4900549;28;20166;-80
2021/01/05 03:26:42;;;;;;;7.93;3.92;;;3.10;99.90;;;;;;4900625;28;20185;-82
2021/01/05 03:29:08;;;;;;;7.20;3.10;;;3.20;99.90;;;;;;4889861;28;20086;-80
2021/01/05 03:31:45;;;;;;;8.98;4.00;;;3.20;99.90;;;;;;4905220;28;20438;-82
2021/01/05 03:34:14;;;;;;;11.02;3.78;;;3.30;99.90;;;;;;4900611;28;20110;-81
2021/01/05 03:36:39;;;;;;;7.47;3.90;;;3.20;99.90;;;;;;4905496;28;20107;-81
2021/01/05 03:39:04;;;;;;;14.10;4.10;;;3.20;99.90;;;;;;4894010;28;20183;-81
2021/01/05 03:41:30;;;;;;;9.38;4.63;;;3.20;99.90;;;;;;4897093;28;20126;-82
2021/01/05 03:43:54;;;;;;;14.82;3.80;;;3.20;99.90;;;;;;4884691;28;20537;-81
2021/01/05 03:46:18;;;;;;;8.13;3.95;;;3.20;99.90;;;;;;4892554;28;21790;-81
2021/01/05 03:48:50;;;;;;;13.55;4.55;;;3.30;99.90;;;;;;4890044;28;20083;-82
2021/01/05 03:51:20;;;;;;;9.82;4.55;;;3.30;99.90;;;;;;4884535;28;20833;-83
2021/01/05 03:53:44;;;;;;;10.50;4.13;;;3.30;99.90;;;;;;4896625;28;20196;-81
2021/01/05 03:56:11;;;;;;;8.80;3.88;;;3.30;99.90;;;;;;4885618;28;20558;-81
2021/01/05 03:58:36;;;;;;;9.65;4.53;;;3.30;99.90;;;;;;4895365;28;20087;-81
2021/01/05 04:01:06;;;;;;;8.60;3.85;;;3.30;99.90;;;;;;4879554;28;20451;-81
2021/01/05 04:03:39;;;;;;;7.57;3.65;;;3.30;99.90;;;;;;4878966;28;20088;-81
2021/01/05 04:06:05;;;;;;;10.45;4.07;;;3.30;99.90;;;;;;4884872;28;20182;-81
2021/01/05 04:08:29;;;;;;;9.25;4.10;;;3.40;99.90;;;;;;4867836;28;20596;-81
2021/01/05 04:10:52;;;;;;;16.95;4.78;;;3.30;99.90;;;;;;4893374;28;20429;-81
2021/01/05 04:13:23;;;;;;;10.18;3.97;;;3.40;99.90;;;;;;4888800;28;20104;-81
2021/01/05 04:15:53;;;;;;;10.30;5.00;;;3.40;99.90;;;;;;4885739;28;20103;-80
2021/01/05 04:18:20;;;;;;;16.50;5.00;;;3.40;99.90;;;;;;4890417;28;20087;-83
2021/01/05 04:20:44;;;;;;;11.85;5.75;;;3.40;99.90;;;;;;4882296;28;22659;-82
2021/01/05 04:23:08;;;;;;;14.05;4.85;;;3.40;99.90;;;;;;4894212;28;20087;-82
2021/01/05 04:25:36;;;;;;;11.40;4.63;;;3.40;99.90;;;;;;4884847;28;20138;-81
2021/01/05 04:27:59;;;;;;;14.50;4.68;;;3.40;99.90;;;;;;4898311;28;20091;-82
2021/01/05 04:30:27;;;;;;;13.20;5.22;;;3.40;99.90;;;;;;4892269;28;20488;-81
2021/01/05 04:33:00;;;;;;;11.73;5.32;;;3.30;99.90;;;;;;4882914;28;20553;-82
2021/01/05 04:35:25;;;;;;;11.50;4.53;;;3.40;99.90;;;;;;4890539;28;20134;-80
2021/01/05 04:37:48;;;;;;;15.43;4.70;;;3.40;99.90;;;;;;4895974;28;20099;-81
2021/01/05 04:40:26;;;;;;;15.82;4.20;;;3.50;99.90;;;;;;4898471;28;20546;-81
2021/01/05 04:43:03;;;;;;;15.05;4.80;;;3.50;99.90;;;;;;4880173;28;20106;-82
2021/01/05 04:45:35;;;;;;;14.50;4.90;;;3.50;99.90;;;;;;4885861;28;20087;-83
2021/01/05 04:48:09;;;;;;;9.38;4.57;;;3.50;99.90;;;;;;4885023;28;20566;-82
2021/01/05 04:50:38;;;;;;;11.40;4.20;;;3.50;99.90;;;;;;4894152;28;20556;-82
2021/01/05 04:53:14;;;;;;;18.95;5.07;;;3.50;99.90;;;;;;4885474;28;20442;-81
2021/01/05 04:55:54;;;;;;;16.42;4.35;;;3.40;99.90;;;;;;4880311;28;20079;-80
2021/01/05 04:58:25;;;;;;;11.13;4.72;;;3.50;99.90;;;;;;4890206;28;20546;-82
2021/01/05 05:00:50;;;;;;;9.90;5.00;;;3.50;99.90;;;;;;4893683;28;20087;-81
2021/01/05 05:03:28;;;;;;;16.77;5.38;;;3.40;99.90;;;;;;4905367;28;20106;-81
2021/01/05 05:06:14;;;;;;;11.98;4.90;;;3.50;99.90;;;;;;4899817;28;20521;-81
2021/01/05 05:08:51;;;;;;;11.77;4.63;;;3.40;99.90;;;;;;4876867;28;20442;-81
2021/01/05 05:11:19;;;;;;;8.80;4.57;;;3.50;99.90;;;;;;4894057;28;20437;-82
2021/01/05 05:13:54;;;;;;;9.48;4.40;;;3.50;99.90;;;;;;4886013;28;20138;-81
2021/01/05 05:16:42;;;;;;;11.02;5.55;;;3.50;99.90;;;;;;4876912;28;20526;-81
2021/01/05 05:19:21;;;;;;;16.38;5.43;;;3.50;99.90;;;;;;4893523;28;20091;-81
2021/01/05 05:21:52;;;;;;;11.68;4.43;;;3.50;99.90;;;;;;4886395;28;20102;-82
2021/01/05 05:24:35;;;;;;;9.63;4.65;;;3.50;99.90;;;;;;4892377;28;20099;-82
2021/01/05 05:27:05;;;;;;;12.68;4.47;;;3.50;99.90;;;;;;4889121;28;20119;-82
2021/01/05 05:29:45;;;;;;;11.70;4.38;;;3.50;99.90;;;;;;4888719;28;20094;-81
2021/01/05 05:32:20;;;;;;;11.82;4.68;;;3.60;99.90;;;;;;4890698;28;20091;-81
2021/01/05 05:35:13;;;;;;;9.43;4.55;;;3.50;99.90;;;;;;4880238;28;20090;-82
2021/01/05 05:37:49;;;;;;;13.15;4.60;;;3.60;99.90;;;;;;4890437;28;20419;-81
2021/01/05 05:40:20;;;;;;;14.57;4.63;;;3.60;99.90;;;;;;4896993;28;20089;-81
2021/01/05 05:43:24;;;;;;;16.13;4.88;;;3.50;99.90;;;;;;4888622;28;20084;-81
2021/01/05 05:45:50;;;;;;;13.15;4.45;;;3.60;99.90;;;;;;4874701;28;20106;-81
2021/01/05 05:48:28;;;;;;;15.90;5.13;;;3.60;99.90;;;;;;4890937;28;20103;-82
2021/01/05 05:51:05;;;;;;;11.38;4.82;;;3.60;99.90;;;;;;4890264;28;20238;-82
2021/01/05 05:53:40;;;;;;;15.65;4.70;;;3.70;99.90;;;;;;4870976;28;20486;-80
2021/01/05 05:56:09;;;;;;;10.77;4.30;;;3.60;99.90;;;;;;4878520;28;20144;-83
2021/01/05 05:58:37;;;;;;;13.30;4.53;;;3.70;99.90;;;;;;4873542;28;20095;-82
2021/01/05 06:01:03;;;;;;;15.40;4.80;;;3.70;99.90;;;;;;4895228;28;20185;-82
2021/01/05 06:03:30;;;;;;;10.07;4.75;;;3.70;99.90;;;;;;4890017;28;20109;-82
2021/01/05 06:06:01;;;;;;;9.63;4.55;;;3.70;99.90;;;;;;4894040;28;20088;-82
2021/01/05 06:08:24;;;;;;;12.13;4.00;;;3.70;99.90;;;;;;4898892;28;20586;-82
2021/01/05 06:10:49;;;;;;;9.52;4.00;;;3.70;99.90;;;;;;4886490;28;20146;-82
2021/01/05 06:13:14;;;;;;;8.38;4.10;;;3.80;99.90;;;;;;4888052;28;20095;-82
2021/01/05 06:15:39;;;;;;;5.65;3.03;;;3.80;99.90;;;;;;4891511;28;20097;-81
2021/01/05 06:18:04;;;;;;;6.97;3.38;;;3.70;99.90;;;;;;4897450;28;20099;-81
2021/01/05 06:20:27;;;;;;;9.10;3.95;;;3.80;99.90;;;;;;4888596;28;20555;-82
2021/01/05 06:22:52;;;;;;;12.35;4.40;;;3.70;99.90;;;;;;4901092;28;20594;-82
2021/01/05 06:25:17;;;;;;;13.13;3.95;;;3.80;99.90;;;;;;4899497;28;20141;-82
2021/01/05 06:27:40;;;;;;;12.27;3.88;;;3.80;99.90;;;;;;4893480;28;20137;-82
2021/01/05 06:30:04;;;;;;;14.65;4.05;;;3.80;99.90;;;;;;4895666;28;20130;-81
2021/01/05 06:32:35;;;;;;;9.77;4.22;;;3.80;99.90;;;;;;4894540;28;20083;-81
2021/01/05 06:34:59;;;;;;;11.75;3.83;;;3.90;99.90;;;;;;4893008;28;20561;-83
2021/01/05 06:37:23;;;;;;;9.70;3.60;;;3.90;99.90;;;;;;4878392;28;20174;-82
2021/01/05 06:39:46;;;;;;;10.60;3.58;;;3.90;99.90;;;;;;4885146;28;20091;-82
2021/01/05 06:42:10;;;;;;;9.43;4.05;;;3.90;99.90;;;;;;4887643;28;20137;-82
2021/01/05 06:44:34;;;;;;;7.55;3.30;;;3.90;99.90;;;;;;4888308;28;20079;-81
2021/01/05 06:47:06;;;;;;;9.98;2.72;;;3.80;99.90;;;;;;4900079;28;20515;-82
2021/01/05 06:49:37;;;;;;;8.55;4.50;;;;;;;;;;4877846;28;20594;-82
2021/01/05 06:52:04;;;;;;;11.05;3.83;;;3.90;99.90;;;;;;4881067;28;20079;-81
2021/01/05 06:54:28;;;;;;;8.57;3.03;;;3.90;99.90;;;;;;4890401;28;20087;-81
2021/01/05 06:56:54;;;;;;;8.77;3.50;;;3.80;99.90;;;;;;4879447;28;20080;-82
2021/01/05 06:59:19;;;;;;;11.05;3.80;;;3.90;99.90;;;;;;4883874;28;20090;-82
2021/01/05 07:01:54;;;;;;;4.85;2.65;;;3.90;99.90;;;;;;4885771;28;20166;-82
2021/01/05 07:04:17;;;;;;;7.35;3.58;;;3.90;99.90;;;;;;4892068;28;20113;-82
2021/01/05 07:06:41;;;;;;;10.43;3.22;;;3.90;99.90;;;;;;4893699;28;20137;-82
2021/01/05 07:09:05;;;;;;;6.85;2.95;;;3.90;99.90;;;;;;4892503;28;20087;-82
2021/01/05 07:11:29;;;;;;;5.55;2.65;;;3.90;99.90;;;;;;4891240;28;20095;-82
2021/01/05 07:13:52;;;;;;;9.38;3.17;;;4.00;99.90;;;;;;4885952;28;21706;-83
2021/01/05 07:16:19;;;;;;;11.48;3.30;;;4.00;99.90;;;;;;4891375;28;20578;-82
2021/01/05 07:18:43;;;;;;;11.38;3.20;;;4.00;99.90;;;;;;4887566;28;20114;-82
2021/01/05 07:21:06;;;;;;;9.13;3.03;;;4.00;99.90;;;;;;4903650;28;23218;-83
2021/01/05 07:23:30;;;;;;;10.07;3.58;;;4.00;99.90;;;;;;4903251;28;20095;-82
2021/01/05 07:25:55;;;;;;;11.38;3.17;;;4.00;99.90;;;;;;4889144;28;20100;-82
2021/01/05 07:28:25;;;;;;;7.65;3.05;;;4.00;99.90;;;;;;4887383;28;20427;-82
2021/01/05 07:30:47;;;;;;;7.60;2.97;;;4.00;99.90;;;;;;4892603;28;20525;-82
2021/01/05 07:33:10;;;;;;;4.75;2.55;;;3.90;99.90;;;;;;4888958;28;20145;-81
2021/01/05 07:35:49;;;;;;;4.65;2.85;;;4.00;99.90;;;;;;4884840;28;20091;-82
2021/01/05 07:38:14;;;;;;;10.23;2.92;;;4.00;99.90;;;;;;4885693;28;20173;-81
2021/01/05 07:40:39;;;;;;;6.63;3.15;;;;;;;;;;4876412;28;20162;-83
2021/01/05 07:43:02;;;;;;;8.45;3.28;;;4.00;99.90;;;;;;4901304;28;20079;-82
2021/01/05 07:45:40;;;;;;;4.57;2.25;;;4.00;99.90;;;;;;4889043;28;20115;-82
2021/01/05 07:48:05;;;;;;;5.95;2.28;;;4.00;99.90;;;;;;4888227;28;20091;-82
2021/01/05 07:50:33;;;;;;;4.65;2.17;;;4.00;99.90;;;;;;4899417;28;20510;-82
2021/01/05 07:53:02;;;;;;;6.30;2.90;;;4.10;99.90;;;;;;4897462;28;20138;-82
2021/01/05 07:55:34;;;;;;;4.20;2.33;;;4.00;99.90;;;;;;4893930;28;20114;-82
2021/01/05 07:58:01;;;;;;;4.15;2.13;;;4.10;99.90;;;;;;4876907;28;20170;-82
2021/01/05 08:00:27;;;;;;;3.33;1.90;;;4.10;99.90;;;;;;4888457;28;20095;-82
2021/01/05 08:02:53;;;;;;;5.53;2.15;;;4.10;99.90;;;;;;4879105;28;20169;-81
2021/01/05 08:05:21;;;;;;;8.20;2.40;;;4.10;99.90;;;;;;4887130;28;20095;-82
2021/01/05 08:07:51;;;;;;;9.48;2.70;;;4.00;99.90;;;;;;4875182;28;20590;-82
2021/01/05 08:10:21;;;;;;;10.70;2.58;;;4.00;99.90;;;;;;4884966;28;20489;-82
2021/01/05 08:12:51;;;;;;;11.65;2.90;;;4.00;99.90;;;;;;4884577;28;20083;-83
2021/01/05 08:15:25;;;;;;;6.50;2.63;;;3.90;99.90;;;;;;4892231;28;20538;-82
2021/01/05 08:18:03;;;;;;;6.53;2.42;;;4.00;99.90;;;;;;4884931;28;20106;-81
2021/01/05 08:20:30;;;;;;;7.05;2.63;;;3.90;99.90;;;;;;4895686;28;20099;-81
2021/01/05 08:22:58;;;;;;;6.97;2.45;;;3.90;99.90;;;;;;4903378;28;20162;-82
2021/01/05 08:25:25;;;;;;;6.72;2.47;;;3.90;99.90;;;;;;4892895;28;20090;-86
2021/01/05 08:27:52;;;;;;;7.15;2.33;;;3.90;99.90;;;;;;4882617;28;20157;-83
2021/01/05 08:30:19;;;;;;;6.22;2.10;;;3.90;99.90;;;;;;4892818;28;20094;-85
2021/01/05 08:32:44;;;;;;;7.72;2.83;;;3.90;99.90;;;;;;4891311;28;20118;-84
2021/01/05 08:35:22;;;;;;;5.90;2.15;;;3.80;99.90;;;;;;4891159;28;20546;-83
2021/01/05 08:37:46;;;;;;;3.30;2.10;;;3.80;99.90;;;;;;4888340;28;20146;-82
2021/01/05 08:40:12;;;;;;;4.25;2.38;;;3.80;99.90;;;;;;4893577;28;20100;-83
2021/01/05 08:42:35;;;;;;;3.80;2.00;;;3.80;99.90;;;;;;4895925;28;20616;-84
2021/01/05 08:44:59;;;;;;;4.68;1.95;;;3.80;99.90;;;;;;4875908;28;20087;-81
2021/01/05 08:47:23;;;;;;;7.22;2.45;;;3.80;99.90;;;;;;4898285;28;20577;-82
2021/01/05 08:49:47;;;;;;;6.00;1.52;;;;;;;;;;4893259;28;20091;-82
2021/01/05 08:52:10;;;;;;;6.47;1.95;;;3.90;99.90;;;;;;4892116;28;20092;-84
2021/01/05 08:54:45;;;;;;;5.72;2.20;;;3.90;99.90;;;;;;4896223;28;20094;-83
2021/01/05 08:57:14;;;;;;;6.47;2.08;;;3.80;99.90;;;;;;4893200;28;20083;-82
2021/01/05 08:59:37;;;;;;;5.72;1.98;;;3.90;99.90;;;;;;4895747;28;20092;-84
2021/01/05 09:02:36;;;;;;;5.45;1.95;;;3.90;99.90;;;;;;4856597;28;21236;-81
2021/01/05 09:05:21;;;;;;;4.93;1.63;;;3.90;99.90;;;;;;4833217;28;20103;-82
2021/01/05 09:08:10;;;;;;;6.03;2.17;;;4.00;99.90;;;;;;4837083;28;20095;-83
2021/01/05 09:10:35;;;;;;;4.30;1.88;;;4.10;99.90;;;;;;4830465;28;20093;-81
2021/01/05 09:13:24;;;;;;;7.72;1.98;;;4.10;99.90;;;;;;4849103;28;20094;-84
2021/01/05 09:16:02;;;;;;;3.58;1.63;;;4.10;99.90;;;;;;4831581;28;20095;-81
2021/01/05 09:18:29;;;;;;;4.20;1.95;;;4.10;99.90;;;;;;4839151;28;20095;-84
2021/01/05 09:21:12;;;;;;;6.60;1.73;;;4.10;99.90;;;;;;4838095;28;20087;-82
2021/01/05 09:24:11;;;;;;;4.93;1.98;;;4.10;99.90;;;;;;4828792;28;20099;-82
2021/01/05 09:26:48;;;;;;;5.13;1.70;;;4.20;99.90;;;;;;4825694;28;20122;-84
2021/01/05 09:29:42;;;;;;;3.97;1.25;;;4.30;99.90;;;;;;4819540;28;20459;-84
2021/01/05 09:35:53;;;;;;;6.63;2.15;;;4.30;99.90;;;;;;4823077;28;20091;-82
2021/01/05 09:38:49;;;;;;;3.88;1.95;;;4.20;99.90;;;;;;4823352;28;20095;-82
2021/01/05 09:55:13;;;;;;;3.45;1.73;;;4.20;99.90;;;;;;4829210;28;20106;-82
2021/01/05 10:11:03;;;;;;;5.97;2.08;;;4.20;99.90;;;;;;4831276;28;20703;-82
2021/01/05 10:24:24;;;;;;;7.82;2.60;;;4.10;99.90;;;;;;4837950;28;20090;-83
2021/01/05 10:27:49;;;;;;;5.75;2.40;;;4.20;99.90;;;;;;4814659;28;20162;-83
2021/01/05 10:31:02;;;;;;;7.57;2.85;;;4.20;99.90;;;;;;4808022;28;20271;-82
2021/01/05 10:34:04;;;;;;;6.28;2.22;;;4.20;99.90;;;;;;4829987;28;20107;-82
2021/01/05 10:37:08;;;;;;;11.02;2.90;;;4.20;99.90;;;;;;4799492;28;20091;-82
2021/01/05 10:39:58;;;;;;;5.25;2.53;;;4.20;99.90;;;;;;4839682;28;20101;-82
2021/01/05 10:42:57;;;;;;;6.70;3.05;;;4.20;99.90;;;;;;4842822;28;20149;-82
2021/01/05 10:45:58;;;;;;;3.63;2.13;;;4.20;99.90;;;;;;4821013;28;20095;-85
2021/01/05 10:48:29;;;;;;;8.27;3.22;;;4.20;99.90;;;;;;4891280;28;20091;-83
2021/01/05 10:50:52;;;;;;;9.00;3.13;;;4.30;99.90;;;;;;4863528;28;20091;-83
2021/01/05 10:53:16;;;;;;;6.13;2.95;;;;;;;;;;4891293;28;20087;-82
2021/01/05 10:55:39;;;;;;;8.73;3.25;;;4.30;99.90;;;;;;4886430;28;20149;-81
2021/01/05 10:58:03;;;;;;;6.80;2.70;;;4.30;99.90;;;;;;4886417;28;20102;-81
2021/01/05 11:00:27;;;;;;;10.57;3.28;;;4.30;99.90;;;;;;4896574;28;20119;-81
2021/01/05 11:02:59;;;;;;;11.52;3.53;;;4.40;99.90;;;;;;4892086;28;20458;-81
2021/01/05 11:05:26;;;;;;;9.02;3.08;;;4.40;99.90;;;;;;4895331;28;20538;-83
2021/01/05 11:07:53;;;;;;;11.95;3.38;;;4.40;99.90;;;;;;4880927;28;20269;-81
2021/01/05 11:10:17;;;;;;;8.52;3.33;;;4.30;99.90;;;;;;4896537;28;20082;-84
2021/01/05 11:12:49;;;;;;;11.27;3.28;;;4.40;99.90;;;;;;4895044;28;20087;-83
2021/01/05 11:15:14;;;;;;;8.40;3.58;;;4.40;99.90;;;;;;4896374;28;20083;-80
2021/01/05 11:17:37;;;;;;;7.60;3.08;;;4.40;99.90;;;;;;4891118;28;20145;-80
2021/01/05 11:20:01;;;;;;;13.30;3.10;;;4.40;99.90;;;;;;4891159;28;20435;-80
2021/01/05 11:22:26;;;;;;;14.63;2.95;;;4.40;99.90;;;;;;4891367;28;20514;-80
2021/01/05 11:24:49;;;;;;;10.05;3.70;;;4.40;99.90;;;;;;4893152;28;20477;-80
2021/01/05 11:27:14;;;;;;;7.28;3.35;;;4.40;99.90;;;;;;4891878;28;20083;-80
2021/01/05 11:29:37;;;;;;;4.27;1.97;;;4.30;99.90;;;;;;4890914;28;20091;-80
2021/01/05 11:32:05;;;;;;;7.50;2.35;;;4.30;99.90;;;;;;4887346;28;20083;-79
2021/01/05 11:34:30;;;;;;;7.18;3.10;;;4.30;99.90;;;;;;4870720;28;20103;-80
2021/01/05 11:36:54;;;;;;;8.15;2.28;;;4.30;99.90;;;;;;4890770;28;20158;-80
2021/01/05 11:39:19;;;;;;;5.90;2.85;;;4.30;99.90;;;;;;4906634;28;20098;-80
2021/01/05 11:41:45;;;;;;;14.23;2.83;;;4.30;99.90;;;;;;4886017;28;20108;-79
2021/01/05 11:44:10;;;;;;;6.72;2.25;;;4.30;99.90;;;;;;4893593;28;20095;-79
2021/01/05 11:46:35;;;;;;;8.38;3.10;;;4.20;99.90;;;;;;4897431;28;20493;-81
2021/01/05 11:48:59;;;;;;;9.07;3.00;;;4.20;99.90;;;;;;4885687;28;20087;-79
2021/01/05 11:51:24;;;;;;;9.82;2.50;;;4.20;99.90;;;;;;4889384;28;20100;-79
2021/01/05 11:53:48;;;;;;;7.75;2.85;;;4.10;99.90;;;;;;4888371;28;20091;-80
2021/01/05 11:56:19;;;;;;;8.88;2.55;;;4.10;99.90;;;;;;4892693;28;20087;-80
2021/01/05 11:58:43;;;;;;;5.72;2.20;;;4.10;99.90;;;;;;4887478;28;20519;-79
2021/01/05 12:01:06;;;;;;;4.03;2.20;;;4.10;99.90;;;;;;4891894;28;20115;-79
2021/01/05 12:03:29;;;;;;;4.97;2.65;;;4.10;99.90;;;;;;4893274;28;20091;-80
2021/01/05 12:05:52;;;;;;;6.50;2.47;;;4.00;99.90;;;;;;4901758;28;20114;-80
2021/01/05 12:08:16;;;;;;;5.07;1.90;;;4.00;99.90;;;;;;4883206;28;20601;-80
2021/01/05 12:10:39;;;;;;;7.68;3.25;;;4.00;99.90;;;;;;4873145;28;20131;-79
2021/01/05 12:13:02;;;;;;;6.53;2.75;;;4.00;99.90;;;;;;4886978;28;20085;-81
2021/01/05 12:15:25;;;;;;;7.47;2.30;;;4.00;99.90;;;;;;4887420;28;20099;-80
2021/01/05 12:17:48;;;;;;;5.43;2.78;;;4.00;99.90;;;;;;4889904;28;22577;-80
2021/01/05 12:20:11;;;;;;;5.55;2.63;;;4.00;99.90;;;;;;4873694;28;20099;-82
2021/01/05 12:22:34;;;;;;;9.07;3.00;;;4.00;99.90;;;;;;4887188;28;20152;-80
2021/01/05 12:24:57;;;;;;;6.95;2.95;;;4.00;99.90;;;;;;4892100;28;20099;-81
2021/01/05 12:27:20;;;;;;;4.93;2.40;;;;;;;;;;4893139;28;20492;-80
2021/01/05 12:29:44;;;;;;;10.48;2.92;;;4.00;99.90;;;;;;4894049;28;20170;-80
2021/01/05 12:32:09;;;;;;;5.70;2.70;;;4.00;99.90;;;;;;4889629;28;20134;-79
2021/01/05 12:34:34;;;;;;;7.43;2.95;;;3.90;99.90;;;;;;4895537;28;20489;-80
2021/01/05 12:37:00;;;;;;;12.05;3.13;;;3.90;99.90;;;;;;4903209;28;20079;-79
2021/01/05 12:39:25;;;;;;;6.85;2.78;;;4.00;99.90;;;;;;4904336;28;20157;-80
2021/01/05 12:41:51;;;;;;;5.30;2.38;;;3.90;99.90;;;;;;4895666;28;20486;-80
2021/01/05 12:44:16;;;;;;;;;;;4.00;99.90;;;;;;4897550;28;20094;-80
2021/01/05 12:46:40;;;;;;;6.70;2.70;;;4.00;99.90;;;;;;4899285;28;19998;-79
2021/01/05 12:49:06;;;;;;;8.38;2.63;;;4.00;99.90;;;;;;4897829;28;20603;-79
2021/01/05 12:51:33;;;;;;;7.38;3.20;;;3.90;99.90;;;;;;4899118;28;20095;-80
2021/01/05 12:53:57;;;;;;;12.77;3.42;;;3.90;99.90;;;;;;4898273;28;20095;-79
2021/01/05 12:56:21;;;;;;;9.10;3.20;;;4.00;99.90;;;;;;4898881;28;20087;-79
2021/01/05 12:58:45;;;;;;;6.63;3.25;;;4.00;99.90;;;;;;4900218;28;20600;-80
2021/01/05 13:01:08;;;;;;;7.60;3.20;;;3.90;99.90;;;;;;4901572;28;20083;-80
2021/01/05 13:03:34;;;;;;;10.40;3.75;;;;;;;;;;4884836;28;20099;-80
2021/01/05 13:05:59;;;;;;;11.10;3.60;;;3.90;99.90;;;;;;4898763;28;20497;-79
2021/01/05 13:08:22;;;;;;;8.65;2.95;;;3.90;99.90;;;;;;4902650;28;20119;-80
2021/01/05 13:10:45;;;;;;;12.20;4.10;;;3.90;99.90;;;;;;4892560;28;20090;-81
2021/01/05 13:13:09;;;;;;;9.27;3.10;;;4.00;99.90;;;;;;4884141;28;20140;-82
2021/01/05 13:15:36;;;;;;;6.28;2.95;;;4.00;99.90;;;;;;4836273;28;20153;-81
2021/01/05 13:18:01;;;;;;;10.10;3.50;;;4.00;99.90;;;;;;4876705;28;20099;-81
2021/01/05 13:20:26;;;;;;;11.05;3.42;;;4.00;99.90;;;;;;4883681;28;20162;-79
2021/01/05 13:22:52;;;;;;;14.97;3.83;;;3.90;99.90;;;;;;4897145;28;20445;-80
2021/01/05 13:25:14;;;;;;;7.68;3.70;;;3.90;99.90;;;;;;4889795;28;20552;-80
2021/01/05 13:27:38;;;;;;;8.15;3.53;;;4.00;99.90;;;;;;4891839;28;20451;-80
2021/01/05 13:30:01;;;;;;;10.93;3.75;;;4.00;99.90;;;;;;4891347;28;20095;-80
2021/01/05 13:32:28;;;;;;;9.85;4.10;;;3.90;99.90;;;;;;4897800;28;20110;-81
2021/01/05 13:34:52;;;;;;;9.27;3.10;;;4.00;99.90;;;;;;4895974;28;20557;-81
2021/01/05 13:37:19;;;;;;;13.60;3.22;;;4.00;99.90;;;;;;4890803;28;20542;-81
2021/01/05 13:39:42;;;;;;;7.97;2.80;;;4.00;99.90;;;;;;4894422;28;20087;-80
2021/01/05 13:42:07;;;;;;;11.73;3.90;;;4.00;99.90;;;;;;4900452;28;20512;-81
2021/01/05 13:44:31;;;;;;;10.27;3.10;;;4.00;99.90;;;;;;4898822;28;20103;-80
2021/01/05 13:46:58;;;;;;;9.90;2.67;;;4.00;99.90;;;;;;4885205;28;20095;-80
2021/01/05 13:49:21;;;;;;;5.53;2.67;;;4.00;99.90;;;;;;4891610;28;20166;-79
2021/01/05 13:51:45;;;;;;;10.07;3.13;;;4.00;99.90;;;;;;4893528;28;20106;-80